Time;durP1;ratioP1;P1;durP2;ratioP2;P2;SDS_P1;SDS_P2;PMS_P1;PMS_P2;Temp;Humidity;BMP_temperature;BMP_pressure;BME280_temperature;BME280_humidity;BME280_pressure;Samples;Min_cycle;Max_cycle;Signal;HPM_P1;HPM_P2
2022/09/21 00:01:06;;;;;;;13.70;3.30;;;;;;;6.26;100.00;154103.88;4940870;29;20035;-79
2022/09/21 00:03:32;;;;;;;16.40;3.47;;;;;;;6.21;100.00;154092.34;4946564;28;20039;-80
2022/09/21 00:06:19;;;;;;;11.05;3.00;;;;;;;6.19;100.00;154088.47;4920881;29;20047;-81
2022/09/21 00:08:45;;;;;;;10.48;2.85;;;;;;;6.19;100.00;154087.22;4934734;28;20031;-80
2022/09/21 00:11:17;;;;;;;8.30;3.17;;;;;;;6.19;100.00;154088.47;4914610;28;20539;-79
2022/09/21 00:13:45;;;;;;;12.50;3.63;;;;;;;6.22;100.00;154096.19;4915559;29;20047;-79
2022/09/21 00:16:12;;;;;;;19.17;3.90;;;;;;;6.29;100.00;154112.84;4943533;28;20131;-80
2022/09/21 00:18:38;;;;;;;18.63;3.88;;;;;;;6.29;100.00;154112.84;4925081;28;20178;-82
2022/09/21 00:21:09;;;;;;;18.25;3.45;;;;;;;6.32;100.00;154120.47;4943150;28;20164;-82
2022/09/21 00:23:36;;;;;;;13.43;3.58;;;;;;;6.31;100.00;154117.94;4932378;29;20039;-81
2022/09/21 00:26:13;;;;;;;15.48;4.00;;;;;;;6.30;100.00;154115.38;4932470;29;20044;-80
2022/09/21 00:28:39;;;;;;;11.23;3.83;;;;;;;6.39;100.00;154137.13;4920371;29;20038;-80
2022/09/21 00:31:11;;;;;;;11.00;3.88;;;;;;;6.38;100.00;154135.81;4917598;29;20478;-79
2022/09/21 00:33:40;;;;;;;20.30;4.00;;;;;;;6.36;100.00;154129.44;4940798;29;20086;-80
2022/09/21 00:36:17;;;;;;;10.15;3.38;;;;;;;6.33;100.00;154121.75;4946039;29;20061;-80
2022/09/21 00:38:53;;;;;;;8.30;3.50;;;;;;;6.31;100.00;154117.94;4932943;29;20070;-80
2022/09/21 00:41:20;;;;;;;11.63;3.75;;;;;;;6.34;100.00;154125.59;4938597;28;20035;-80
2022/09/21 00:44:17;;;;;;;16.60;4.28;;;;;;;6.30;100.00;154115.38;4920825;29;20498;-81
2022/09/21 00:46:45;;;;;;;19.13;4.28;;;;;;;6.26;100.00;154103.88;4927094;29;20054;-81
2022/09/21 00:49:11;;;;;;;12.48;3.90;;;;;;;6.24;100.00;154101.28;4948154;28;20306;-79
2022/09/21 00:51:37;;;;;;;12.48;4.07;;;;;;;6.20;100.00;154089.78;4943727;29;20421;-80
2022/09/21 00:54:14;;;;;;;10.50;3.75;;;;;;;6.25;100.00;154102.56;4946435;29;20122;-81
2022/09/21 00:56:41;;;;;;;20.73;4.30;;;;;;;6.20;100.00;154089.78;4918709;29;20062;-80
2022/09/21 00:59:08;;;;;;;14.82;3.92;;;;;;;6.20;100.00;154089.78;4943723;29;20490;-79
2022/09/21 01:01:35;;;;;;;13.27;3.92;;;;;;;6.17;100.00;154083.38;4946932;28;20071;-80
2022/09/21 01:04:01;;;;;;;11.75;3.60;;;;;;;6.18;100.00;154084.69;4940385;28;20047;-81
2022/09/21 01:06:27;;;;;;;10.32;3.47;;;;;;;6.16;100.00;154079.53;4955759;28;20031;-80
2022/09/21 01:08:57;;;;;;;14.02;3.72;;;;;;;6.10;100.00;154065.44;4963634;28;20042;-79
2022/09/21 01:11:37;;;;;;;10.35;3.42;;;;;;;6.01;100.00;154043.75;4954089;28;20075;-80
2022/09/21 01:14:29;;;;;;;10.02;3.42;;;;;;;6.07;100.00;154057.81;4956818;28;20031;-79
2022/09/21 01:17:40;;;;;;;17.08;3.60;;;;;;;5.98;100.00;154034.78;4951174;28;20027;-81
2022/09/21 01:20:44;;;;;;;11.98;3.70;;;;;;;5.96;100.00;154029.66;4911929;29;20098;-80
2022/09/21 01:23:28;;;;;;;8.45;3.30;;;;;;;5.94;100.00;154025.78;4947144;28;20102;-79
2022/09/21 01:26:39;;;;;;;11.73;3.53;;;;;;;5.97;100.00;154033.50;4956810;28;20043;-80
2022/09/21 01:29:10;;;;;;;14.48;3.55;;;;;;;5.92;100.00;154020.66;4902178;28;20042;-80
2022/09/21 01:31:53;;;;;;;12.52;3.60;;;;;;;5.90;100.00;154014.28;4953932;28;20437;-80
2022/09/21 01:34:32;;;;;;;12.80;3.10;;;;;;;5.85;100.00;154002.75;4935901;28;20039;-82
2022/09/21 01:37:04;;;;;;;13.57;3.78;;;;;;;5.84;100.00;154000.22;4939434;29;20293;-82
2022/09/21 01:39:33;;;;;;;10.40;3.85;;;;;;;5.80;100.00;153989.94;4937335;28;20110;-82
2022/09/21 01:42:04;;;;;;;13.43;3.65;;;;;;;5.78;100.00;153986.16;4952657;28;20474;-80
2022/09/21 01:44:33;;;;;;;11.77;3.92;;;;;;;5.78;100.00;153984.84;4952343;28;20506;-83
2022/09/21 01:47:01;;;;;;;14.70;3.85;;;;;;;5.76;100.00;153981.00;4924210;29;20035;-81
2022/09/21 01:49:33;;;;;;;11.57;3.75;;;;;;;5.69;100.00;153963.13;4965262;28;20039;-81
2022/09/21 01:52:09;;;;;;;10.40;3.40;;;;;;;5.67;100.00;153958.00;4955661;28;20039;-80
2022/09/21 01:54:59;;;;;;;10.27;3.35;;;;;;;5.65;100.00;153952.84;4943025;28;20031;-81
2022/09/21 01:57:42;;;;;;;11.00;3.80;;;;;;;5.64;100.00;153951.59;4938992;28;20122;-80
2022/09/21 02:00:08;;;;;;;13.65;3.50;;;;;;;5.65;100.00;153954.16;4940152;29;20082;-80
2022/09/21 02:02:54;;;;;;;18.55;4.10;;;;;;;5.56;100.00;153929.88;4929699;28;20035;-81
2022/09/21 02:05:22;;;;;;;9.95;2.90;;;;;;;5.56;100.00;153931.16;4940075;28;20043;-81
2022/09/21 02:07:51;;;;;;;12.13;3.55;;;;;;;5.52;100.00;153920.94;4922942;29;20051;-81
2022/09/21 02:10:41;;;;;;;9.73;3.33;;;;;;;5.44;100.00;153900.44;4937706;28;20047;-81
2022/09/21 02:13:07;;;;;;;6.30;2.83;;;;;;;5.45;100.00;153904.28;4951710;28;20197;-80
2022/09/21 02:16:01;;;;;;;12.48;3.03;;;;;;;5.42;100.00;153895.31;4955832;28;20046;-82
2022/09/21 02:18:56;;;;;;;10.50;3.90;;;;;;;5.43;100.00;153899.16;4923388;28;20059;-81
2022/09/21 02:21:40;;;;;;;14.73;3.70;;;;;;;5.42;100.00;153896.59;4919266;28;20609;-80
2022/09/21 02:24:13;;;;;;;7.43;3.00;;;;;;;5.45;100.00;153904.28;4940940;29;20027;-80
2022/09/21 02:26:52;;;;;;;12.52;3.45;;;;;;;5.42;100.00;153896.59;4951896;28;20035;-80
2022/09/21 02:29:25;;;;;;;12.73;3.50;;;;;;;5.37;100.00;153882.53;4963257;28;20524;-80
2022/09/21 02:31:58;;;;;;;9.23;3.42;;;;;;;5.40;100.00;153890.22;4939511;29;20066;-80
2022/09/21 02:34:32;;;;;;;6.93;3.35;;;;;;;5.40;100.00;153890.22;4955042;28;20031;-82
2022/09/21 02:37:23;;;;;;;12.85;3.33;;;;;;;5.43;100.00;153899.16;4948865;28;20042;-81
2022/09/21 02:39:55;;;;;;;13.90;3.53;;;;;;;5.41;100.00;153892.78;4952489;28;20089;-80
2022/09/21 02:42:34;;;;;;;9.85;3.30;;;;;;;5.35;100.00;153877.44;4942231;28;20121;-80
2022/09/21 02:45:09;;;;;;;12.30;3.97;;;;;;;5.37;100.00;153882.53;4954168;28;20039;-80
2022/09/21 02:47:45;;;;;;;13.43;3.78;;;;;;;5.29;100.00;153862.09;4943827;28;20041;-81
2022/09/21 02:50:22;;;;;;;11.77;3.35;;;;;;;5.36;100.00;153880.00;4922810;28;20039;-80
2022/09/21 02:52:48;;;;;;;8.07;3.25;;;;;;;5.31;100.00;153868.47;4932812;28;20393;-80
2022/09/21 02:55:16;;;;;;;12.05;3.72;;;;;;;5.30;100.00;153865.94;4944609;28;20716;-80
2022/09/21 02:57:42;;;;;;;11.20;3.53;;;;;;;5.28;100.00;153860.81;4925913;29;20098;-80
2022/09/21 03:00:09;;;;;;;13.13;4.28;;;;;;;5.30;100.00;153864.66;4933657;29;20039;-82
2022/09/21 03:02:40;;;;;;;9.63;3.97;;;;;;;5.29;100.00;153862.09;4952912;28;20118;-79
2022/09/21 03:05:07;;;;;;;12.40;4.18;;;;;;;5.29;100.00;153862.09;4946363;28;20075;-80
2022/09/21 03:07:33;;;;;;;10.77;3.97;;;;;;;5.23;100.00;153849.28;4931907;28;20042;-80
2022/09/21 03:09:58;;;;;;;9.80;3.45;;;;;;;5.22;100.00;153845.50;4925093;29;20043;-81
2022/09/21 03:12:25;;;;;;;10.73;3.80;;;;;;;5.22;100.00;153846.75;4936841;28;20044;-80
2022/09/21 03:14:52;;;;;;;11.38;3.30;;;;;;;5.20;100.00;153841.66;4937290;29;20130;-81
2022/09/21 03:17:18;;;;;;;8.70;3.40;;;;;;;5.15;100.00;153828.84;4919107;28;20046;-79
2022/09/21 03:19:43;;;;;;;11.50;3.53;;;;;;;5.12;100.00;153819.91;4959753;28;20031;-80
2022/09/21 03:22:09;;;;;;;8.48;3.40;;;;;;;5.17;100.00;153832.69;4949574;28;20023;-80
2022/09/21 03:24:47;;;;;;;12.55;3.80;;;;;;;5.05;100.00;153803.31;4965801;28;20031;-80
2022/09/21 03:27:14;;;;;;;12.13;3.97;;;;;;;5.03;100.00;153798.22;4939024;28;20062;-81
2022/09/21 03:29:39;;;;;;;13.77;3.78;;;;;;;4.96;100.00;153780.31;4920234;29;20023;-81
2022/09/21 03:32:05;;;;;;;9.25;3.47;;;;;;;4.96;100.00;153781.56;4953017;28;20031;-82
2022/09/21 03:34:32;;;;;;;12.15;4.28;;;;;;;4.94;100.00;153776.47;4937168;28;20670;-79
2022/09/21 03:37:05;;;;;;;8.95;3.92;;;;;;;4.87;100.00;153759.81;4938534;29;20113;-81
2022/09/21 03:39:31;;;;;;;7.45;3.55;;;;;;;4.95;100.00;153779.00;4952823;28;20035;-82
2022/09/21 03:41:57;;;;;;;11.20;3.67;;;;;;;4.97;100.00;153782.84;4944732;28;20023;-81
2022/09/21 03:44:24;;;;;;;12.95;3.83;;;;;;;4.94;100.00;153775.19;4922781;28;20035;-82
2022/09/21 03:46:50;;;;;;;7.65;3.70;;;;;;;4.94;100.00;153775.19;4944471;28;20042;-80
2022/09/21 03:49:16;;;;;;;10.25;4.30;;;;;;;4.87;100.00;153758.56;4953566;28;20035;-80
2022/09/21 03:51:42;;;;;;;10.65;4.25;;;;;;;4.87;100.00;153759.81;4954932;28;20031;-80
2022/09/21 03:54:08;;;;;;;9.32;4.15;;;;;;;4.93;100.00;153773.88;4961755;28;20093;-80
2022/09/21 03:56:33;;;;;;;10.30;4.25;;;;;;;4.92;100.00;153771.34;4942278;28;20054;-79
2022/09/21 03:58:59;;;;;;;10.85;4.65;;;;;;;4.95;100.00;153777.72;4926213;29;20035;-79
2022/09/21 04:01:25;;;;;;;9.55;4.43;;;;;;;4.90;100.00;153766.25;4940062;28;20035;-81
2022/09/21 04:03:51;;;;;;;16.20;4.70;;;;;;;4.81;100.00;153743.25;4957307;28;20070;-80
2022/09/21 04:06:17;;;;;;;13.75;4.72;;;;;;;4.86;100.00;153757.28;4939774;28;20047;-81
2022/09/21 04:08:43;;;;;;;15.90;4.95;;;;;;;4.85;100.00;153754.72;4930454;29;20484;-80
2022/09/21 04:11:15;;;;;;;9.10;4.35;;;;;;;4.82;100.00;153747.06;4954181;28;20453;-81
2022/09/21 04:13:41;;;;;;;13.13;4.65;;;;;;;4.87;100.00;153758.56;4942437;29;20035;-80
2022/09/21 04:16:10;;;;;;;14.15;5.18;;;;;;;4.80;100.00;153740.66;4924022;29;20043;-80
2022/09/21 04:18:37;;;;;;;12.68;5.03;;;;;;;4.83;100.00;153749.59;4963742;28;20038;-78
2022/09/21 04:21:04;;;;;;;12.38;5.35;;;;;;;4.81;100.00;153743.25;4924814;29;20039;-79
2022/09/21 04:23:30;;;;;;;13.20;4.95;;;;;;;4.82;100.00;153745.75;4945976;28;20036;-80
2022/09/21 04:25:56;;;;;;;15.27;5.20;;;;;;;4.74;100.00;153726.59;4943117;29;20075;-79
2022/09/21 04:28:22;;;;;;;11.30;5.60;;;;;;;4.79;100.00;153739.41;4939851;28;20584;-78
2022/09/21 04:30:52;;;;;;;14.95;5.53;;;;;;;4.77;100.00;153734.28;4942346;29;20039;-81
2022/09/21 04:33:18;;;;;;;13.10;5.43;;;;;;;4.75;100.00;153729.19;4939149;28;20031;-79
2022/09/21 04:35:44;;;;;;;13.48;5.22;;;;;;;4.75;100.00;153727.91;4956555;28;20066;-79
2022/09/21 04:38:09;;;;;;;18.83;5.05;;;;;;;4.75;100.00;153729.19;4946707;28;20035;-80
2022/09/21 04:40:35;;;;;;;11.27;4.53;;;;;;;4.77;100.00;153734.28;4964322;28;20042;-79
2022/09/21 04:43:00;;;;;;;14.45;5.85;;;;;;;4.72;100.00;153720.22;4945994;28;20111;-80
2022/09/21 04:45:26;;;;;;;13.60;5.18;;;;;;;4.65;100.00;153703.59;4938237;28;20047;-80
2022/09/21 04:47:52;;;;;;;13.38;5.22;;;;;;;4.61;100.00;153693.38;4942804;28;20051;-81
2022/09/21 04:50:18;;;;;;;12.77;5.28;;;;;;;4.65;100.00;153703.59;4939271;28;20450;-79
2022/09/21 04:52:45;;;;;;;11.90;5.30;;;;;;;4.68;100.00;153711.28;4940870;28;20083;-80
2022/09/21 04:55:10;;;;;;;9.48;4.45;;;;;;;4.65;100.00;153704.91;4924586;28;20063;-80
2022/09/21 04:57:36;;;;;;;9.15;4.05;;;;;;;4.63;100.00;153698.47;4943500;28;20031;-81
2022/09/21 05:00:04;;;;;;;11.38;4.38;;;;;;;4.65;100.00;153703.59;4943767;29;20143;-79
2022/09/21 05:02:29;;;;;;;9.75;4.90;;;;;;;4.63;100.00;153699.81;4953441;28;20032;-80
2022/09/21 05:04:55;;;;;;;11.27;4.78;;;;;;;4.62;100.00;153697.22;4955579;28;20042;-79
2022/09/21 05:07:21;;;;;;;9.23;4.53;;;;;;;4.61;100.00;153693.38;4947345;28;20051;-79
2022/09/21 05:10:01;;;;;;;15.20;6.65;;;;;;;4.52;100.00;153670.38;4937674;29;20046;-80
2022/09/21 05:12:27;;;;;;;11.40;5.68;;;;;;;4.59;100.00;153688.28;4946480;28;20704;-80
2022/09/21 05:14:54;;;;;;;14.65;6.40;;;;;;;4.60;100.00;153690.84;4940625;29;20095;-80
2022/09/21 05:17:21;;;;;;;10.20;5.80;;;;;;;4.61;100.00;153693.38;4937806;28;20445;-80
2022/09/21 05:19:48;;;;;;;14.13;6.38;;;;;;;4.67;100.00;153710.00;4955307;28;20043;-80
2022/09/21 05:22:13;;;;;;;12.02;6.00;;;;;;;4.68;100.00;153711.28;4962531;28;20050;-80
2022/09/21 05:24:39;;;;;;;9.82;5.88;;;;;;;4.63;100.00;153699.81;4940920;29;20039;-80
2022/09/21 05:27:05;;;;;;;14.00;6.38;;;;;;;4.75;100.00;153727.91;4940654;29;20046;-79
2022/09/21 05:29:31;;;;;;;14.95;7.35;;;;;;;4.81;100.00;153743.25;4923717;28;20125;-80
2022/09/21 05:32:05;;;;;;;13.85;8.35;;;;;;;4.93;100.00;153773.88;4946820;28;20050;-80
2022/09/21 05:34:37;;;;;;;15.90;8.50;;;;;;;4.96;100.00;153781.56;4941565;28;20058;-79
2022/09/21 05:37:22;;;;;;;16.58;8.88;;;;;;;5.04;100.00;153802.00;4944396;29;20043;-78
2022/09/21 05:39:48;;;;;;;21.85;10.07;;;;;;;5.09;100.00;153812.28;4949614;28;20047;-79
2022/09/21 05:42:14;;;;;;;26.73;9.10;;;;;;;5.16;100.00;153831.44;4945341;28;20049;-80
2022/09/21 05:44:39;;;;;;;15.30;7.60;;;;;;;5.28;100.00;153860.81;4944060;28;20034;-80
2022/09/21 05:47:29;;;;;;;8.80;6.70;;;;;;;5.38;100.00;153885.09;4924133;29;20540;-80
2022/09/21 05:50:14;;;;;;;38.55;6.03;;;;;;;5.47;100.00;153908.13;4931944;29;20051;-80
2022/09/21 05:52:59;;;;;;;8.45;5.80;;;;;;;5.59;100.00;153937.53;4935661;29;20111;-85
2022/09/21 05:55:27;;;;;;;10.02;3.88;;;;;;;5.70;100.00;153964.41;4917289;28;20083;-80
2022/09/21 05:58:29;;;;;;;5.10;3.50;;;;;;;5.74;100.00;153974.63;4928158;29;20047;-80
2022/09/21 06:01:01;;;;;;;7.35;3.53;;;;;;;5.84;100.00;154001.47;4958837;28;20070;-81
2022/09/21 06:03:34;;;;;;;3.67;3.33;;;;;;;5.88;100.00;154009.13;4948387;28;20102;-81
2022/09/21 06:06:01;;;;;;;6.70;3.40;;;;;;;5.88;100.00;154009.13;4940847;28;20055;-81
2022/09/21 06:08:27;;;;;;;6.20;3.13;;;;;;;5.96;100.00;154029.66;4953491;28;20087;-81
2022/09/21 06:10:53;;;;;;;4.13;3.42;;;;;;;6.01;100.00;154042.47;4920057;29;20062;-80
2022/09/21 06:13:19;;;;;;;6.95;3.30;;;;;;;6.10;100.00;154064.19;4946496;28;20046;-81
2022/09/21 06:15:45;;;;;;;5.15;3.45;;;;;;;6.14;100.00;154074.41;4943178;28;20101;-82
2022/09/21 06:18:11;;;;;;;8.65;3.60;;;;;;;6.30;100.00;154115.38;4945496;28;20430;-81
2022/09/21 06:20:37;;;;;;;8.73;4.03;;;;;;;6.38;100.00;154135.81;4926869;28;20034;-81
2022/09/21 06:23:05;;;;;;;12.48;5.35;;;;;;;6.63;100.00;154197.28;4927880;29;20049;-81
2022/09/21 06:25:31;;;;;;;9.93;5.07;;;;;;;6.75;100.00;154227.97;4957173;28;20039;-82
2022/09/21 06:28:11;;;;;;;11.00;5.30;;;;;;;6.91;100.00;154266.34;4945314;28;20046;-81
2022/09/21 06:30:38;;;;;;;10.75;4.93;;;;;;;7.02;100.00;154294.50;4925430;29;20027;-80
2022/09/21 06:33:05;;;;;;;12.35;5.07;;;;;;;7.21;100.00;154341.88;4937169;29;20031;-81
2022/09/21 06:35:33;;;;;;;10.75;5.20;;;;;;;7.25;100.00;154350.81;4941241;28;20038;-81
2022/09/21 06:38:04;;;;;;;7.57;5.03;;;;;;;7.43;100.00;154396.94;4957060;28;20126;-80
2022/09/21 06:40:31;;;;;;;11.18;5.30;;;;;;;7.49;100.00;154412.28;4930513;28;20129;-80
2022/09/21 06:42:59;;;;;;;12.27;5.80;;;;;;;7.58;100.00;154435.31;4948449;28;20030;-81
2022/09/21 06:45:25;;;;;;;12.13;5.55;;;;;;;7.76;100.00;154480.16;4962258;28;20122;-81
2022/09/21 06:47:51;;;;;;;14.98;6.57;;;;;;;7.91;100.00;154516.00;4928535;28;20118;-80
2022/09/21 06:50:17;;;;;;;15.45;6.70;;;;;;;8.08;100.00;154558.25;4940698;28;20667;-80
2022/09/21 06:52:42;;;;;;;13.65;7.20;;;;;;;8.23;100.00;154595.41;4945977;29;20053;-82
2022/09/21 06:55:09;;;;;;;15.65;6.78;;;;;;;8.34;100.00;154623.59;4921136;29;20094;-80
2022/09/21 06:57:37;;;;;;;12.85;6.45;;;;;;;8.52;100.00;154668.50;4967718;28;20134;-80
2022/09/21 07:00:06;;;;;;;11.70;6.43;;;;;;;8.64;100.00;154699.22;4923304;29;20457;-82
2022/09/21 07:02:32;;;;;;;16.05;6.70;;;;;;;8.73;100.00;154722.31;4957056;28;20409;-81
2022/09/21 07:04:58;;;;;;;15.95;7.05;;;;;;;8.90;100.00;154763.31;4934188;28;20527;-81
2022/09/21 07:07:24;;;;;;;13.68;7.00;;;;;;;8.98;100.00;154782.53;4927201;28;20513;-80
2022/09/21 07:09:50;;;;;;;14.52;7.22;;;;;;;9.03;100.00;154795.38;4939053;29;20047;-81
2022/09/21 07:12:17;;;;;;;12.10;7.10;;;;;;;9.18;100.00;154833.81;4957444;28;20042;-81
2022/09/21 07:14:46;;;;;;;15.43;7.28;;;;;;;9.27;100.00;154855.63;4934779;29;20050;-78
2022/09/21 07:17:13;;;;;;;17.20;6.97;;;;;;;9.47;100.00;154906.84;4921337;28;20039;-80
2022/09/21 07:19:39;;;;;;;13.25;7.32;;;;;;;9.48;100.00;154908.19;4963150;28;20382;-81
2022/09/21 07:22:05;;;;;;;15.20;7.28;;;;;;;9.73;100.00;154972.25;4944124;28;20070;-80
2022/09/21 07:24:31;;;;;;;11.43;6.85;;;;;;;9.91;100.00;155015.88;4955272;28;20038;-80
2022/09/21 07:26:57;;;;;;;12.15;7.15;;;;;;;10.02;100.00;155044.09;4928231;29;20046;-81
2022/09/21 07:29:23;;;;;;;18.80;7.95;;;;;;;10.16;100.00;155078.72;4930292;28;20039;-80
2022/09/21 07:31:49;;;;;;;14.02;8.00;;;;;;;10.26;100.00;155103.06;4936875;29;20152;-79
2022/09/21 07:34:15;;;;;;;17.88;7.78;;;;;;;10.41;100.00;155140.34;4941989;28;20078;-80
2022/09/21 07:36:40;;;;;;;12.18;7.28;;;;;;;10.50;100.00;155163.44;4953306;28;20606;-81
2022/09/21 07:39:08;;;;;;;18.70;8.30;;;;;;;10.70;100.00;155214.75;4941977;29;20043;-80
2022/09/21 07:41:34;;;;;;;17.42;7.20;;;;;;;10.78;100.00;155232.72;4942419;28;20034;-81
2022/09/21 07:44:01;;;;;;;20.75;7.93;;;;;;;10.96;100.00;155278.88;4935163;28;20042;-82
2022/09/21 07:46:26;;;;;;;16.60;8.15;;;;;;;11.06;100.00;155303.28;4920653;29;20028;-80
2022/09/21 07:48:53;;;;;;;17.13;7.80;;;;;;;11.12;100.00;155318.69;4923294;29;20097;-81
2022/09/21 07:51:19;;;;;;;16.27;8.07;;;;;;;11.36;100.00;155377.69;4951424;28;20042;-81
2022/09/21 07:53:45;;;;;;;20.92;8.23;;;;;;;11.44;100.00;155398.25;4938985;29;20042;-80
2022/09/21 07:56:13;;;;;;;17.55;7.90;;;;;;;11.46;100.00;155404.66;4955361;28;20045;-80
2022/09/21 08:01:25;;;;;;;17.00;8.23;;;;;;;11.74;100.00;155474.00;4938585;28;20043;-81
2022/09/21 08:03:52;;;;;;;21.20;9.30;;;;;;;11.83;100.00;155495.84;4932047;29;20463;-80
2022/09/21 08:06:19;;;;;;;19.98;8.48;;;;;;;11.85;100.00;155502.25;4947047;28;20122;-83
2022/09/21 08:08:46;;;;;;;18.17;9.00;;;;;;;12.08;100.00;155560.06;4946993;28;20046;-82
2022/09/21 08:11:13;;;;;;;14.75;8.38;;;;;;;12.19;100.00;155587.06;4941314;28;20058;-83
2022/09/21 08:13:38;;;;;;;26.33;9.20;;;;;;;12.27;100.00;155607.59;4923406;29;20051;-83
2022/09/21 08:16:05;;;;;;;20.52;7.80;;;;;;;12.44;100.00;155649.97;4927681;29;20040;-84
2022/09/21 08:18:30;;;;;;;19.42;7.80;;;;;;;12.45;100.00;155652.56;4955231;28;20046;-81
2022/09/21 08:20:58;;;;;;;16.45;8.40;;;;;;;12.63;100.00;155697.50;4899128;28;1214215;-82
2022/09/21 08:23:25;;;;;;;18.42;7.28;;;;;;;12.50;100.00;155664.09;4941673;28;20127;-82
2022/09/21 08:25:51;;;;;;;16.85;7.68;;;;;;;12.55;100.00;155675.69;4943647;29;20078;-82
2022/09/21 08:28:17;;;;;;;19.00;7.82;;;;;;;12.67;100.00;155706.50;4955423;28;20452;-81
2022/09/21 08:30:43;;;;;;;15.13;7.55;;;;;;;12.82;100.00;155745.03;4944233;29;20501;-82
2022/09/21 08:33:09;;;;;;;17.08;7.15;;;;;;;12.88;100.00;155757.88;4943281;29;20066;-82
2022/09/21 08:35:35;;;;;;;18.10;7.38;;;;;;;13.00;100.00;155788.75;4943351;28;20039;-82
2022/09/21 08:38:01;;;;;;;10.40;5.68;;;;;;;13.11;100.00;155817.00;4926363;29;20032;-81
2022/09/21 08:40:27;;;;;;;11.50;5.00;;;;;;;13.22;100.00;155845.28;4940799;28;20040;-82
2022/09/21 08:42:59;;;;;;;14.07;5.60;;;;;;;13.18;100.00;155833.69;4942537;29;20043;-83
2022/09/21 08:45:31;;;;;;;12.18;5.93;;;;;;;13.12;100.00;155818.28;4943606;28;20457;-82
2022/09/21 08:48:01;;;;;;;9.07;5.03;;;;;;;13.22;100.00;155845.28;4949655;28;20047;-81
2022/09/21 08:50:36;;;;;;;12.90;5.18;;;;;;;13.43;100.00;155898.00;4933931;28;20120;-82
2022/09/21 08:53:06;;;;;;;11.15;5.18;;;;;;;13.48;100.00;155909.56;4946724;29;20062;-82
2022/09/21 08:55:32;;;;;;;10.82;4.82;;;;;;;13.47;100.00;155905.69;4957040;28;20394;-83
2022/09/21 08:57:59;;;;;;;11.23;5.28;;;;;;;13.52;100.00;155918.56;4947556;29;20707;-82
2022/09/21 09:00:25;;;;;;;16.38;4.90;;;;;;;13.57;100.00;155931.44;4926024;28;20067;-82
2022/09/21 09:03:03;;;;;;;11.45;4.97;;;;;;;13.74;100.00;155975.13;4945347;28;20047;-81
2022/09/21 09:05:47;;;;;;;11.02;4.60;;;;;;;13.94;100.00;156025.28;4942934;28;20509;-84
2022/09/21 09:08:47;;;;;;;9.48;3.08;;;;;;;13.90;100.00;156013.69;4940801;28;20594;-81
2022/09/21 09:11:19;;;;;;;4.15;2.30;;;;;;;13.76;100.00;155980.25;4950139;28;20425;-82
2022/09/21 09:13:54;;;;;;;11.20;3.20;;;;;;;13.59;100.00;155937.84;4947556;28;20046;-81
2022/09/21 09:16:35;;;;;;;6.13;2.50;;;;;;;13.68;100.00;155958.44;4967417;28;20516;-81
2022/09/21 09:19:07;;;;;;;4.50;2.15;;;;;;;13.80;100.00;155990.53;4947455;29;20538;-82
2022/09/21 09:21:42;;;;;;;5.23;2.20;;;;;;;13.94;100.00;156025.28;4942100;28;20401;-82
2022/09/21 09:24:14;;;;;;;4.15;1.88;;;;;;;14.04;100.00;156048.41;4970675;28;20066;-82
2022/09/21 09:27:05;;;;;;;8.15;2.40;;;;;;;14.00;100.00;156040.69;4941404;29;20047;-81
2022/09/21 09:30:04;;;;;;;7.15;2.03;;;;;;;14.23;100.00;156097.25;4955748;28;20035;-81
2022/09/21 09:32:54;;;;;;;5.90;1.45;;;;;;;14.34;100.00;156125.56;4939608;28;20127;-81
2022/09/21 09:35:35;;;;;;;6.60;1.40;;;;;;;14.54;100.00;156175.72;4959228;28;20063;-81
2022/09/21 09:38:13;;;;;;;4.75;1.63;;;;;;;14.49;99.68;156162.84;4972560;28;20066;-82
2022/09/21 09:41:04;;;;;;;3.58;1.30;;;;;;;14.26;95.25;156105.00;4951373;28;20575;-82
2022/09/21 09:43:58;;;;;;;3.70;1.23;;;;;;;14.37;94.22;156131.97;4948896;28;20039;-82
2022/09/21 09:46:43;;;;;;;3.75;1.60;;;;;;;14.41;94.79;156142.28;4939286;28;20031;-81
2022/09/21 09:49:29;;;;;;;6.47;1.70;;;;;;;14.45;92.97;156151.25;4969321;28;20097;-81
2022/09/21 09:51:55;;;;;;;2.78;1.20;;;;;;;14.55;92.87;156177.00;4940869;29;20035;-81
2022/09/21 09:54:23;;;;;;;2.97;1.20;;;;;;;14.60;93.39;156189.91;4940259;28;20044;-81
2022/09/21 09:56:49;;;;;;;4.70;1.70;;;;;;;14.70;92.74;156215.63;4927215;29;20060;-81
2022/09/21 09:59:34;;;;;;;5.55;1.63;;;;;;;14.70;92.02;156215.63;4948454;28;20031;-82
2022/09/21 10:02:25;;;;;;;6.70;1.42;;;;;;;14.97;92.21;156282.50;4957634;28;20074;-82
2022/09/21 10:05:07;;;;;;;3.85;1.60;;;;;;;15.25;90.01;156353.25;4924227;28;20055;-80
2022/09/21 10:07:36;;;;;;;3.22;0.90;;;;;;;15.36;91.13;156381.56;4941318;28;20401;-80
2022/09/21 10:10:25;;;;;;;5.55;1.20;;;;;;;15.49;86.78;156413.75;4958083;28;20039;-81
2022/09/21 10:12:52;;;;;;;4.47;1.00;;;;;;;15.51;82.75;156418.88;4942190;29;20474;-80
2022/09/21 10:15:19;;;;;;;3.33;1.65;;;;;;;15.45;85.07;156402.19;4941604;28;20039;-81
2022/09/21 10:17:46;;;;;;;3.10;0.95;;;;;;;15.51;82.17;156417.63;4929776;28;20034;-81
2022/09/21 10:20:19;;;;;;;5.10;1.50;;;;;;;15.38;79.79;156385.44;4956801;28;20040;-81
2022/09/21 10:22:54;;;;;;;4.80;1.52;;;;;;;15.46;84.61;156406.00;4951904;28;20034;-81
2022/09/21 10:25:20;;;;;;;4.65;1.40;;;;;;;15.62;79.06;156444.66;4944153;28;20129;-81
2022/09/21 10:27:49;;;;;;;6.72;1.80;;;;;;;15.50;77.49;156416.34;4954630;29;20035;-82
2022/09/21 10:30:37;;;;;;;4.30;1.45;;;;;;;15.88;76.11;156511.63;4957847;28;20039;-81
2022/09/21 10:33:16;;;;;;;2.45;1.35;;;;;;;15.99;78.40;156538.63;4972149;28;20109;-80
2022/09/21 10:35:49;;;;;;;4.50;1.38;;;;;;;15.99;76.97;156537.34;4951169;28;20128;-81
2022/09/21 10:38:19;;;;;;;3.25;1.80;;;;;;;16.20;78.59;156590.09;4958742;28;20035;-80
2022/09/21 10:40:46;;;;;;;9.07;1.90;;;;;;;16.09;75.02;156564.38;4923947;29;20081;-86
2022/09/21 10:43:23;;;;;;;7.18;1.70;;;;;;;16.25;74.23;156604.28;4921211;28;20577;-84
2022/09/21 10:45:56;;;;;;;9.05;1.95;;;;;;;16.34;72.49;156627.44;4940346;29;20582;-82
2022/09/21 10:48:25;;;;;;;6.75;1.80;;;;;;;16.48;73.21;156660.91;4960335;28;20119;-83
2022/09/21 10:50:52;;;;;;;7.38;1.85;;;;;;;16.49;74.22;156663.50;4953672;28;20390;-83
2022/09/21 10:53:29;;;;;;;2.25;1.20;;;;;;;16.54;72.40;156676.41;4940004;28;20736;-82
2022/09/21 10:56:00;;;;;;;3.28;1.50;;;;;;;16.56;73.76;156681.56;4939016;29;20528;-84
2022/09/21 10:58:26;;;;;;;8.55;1.40;;;;;;;16.68;71.19;156711.16;4946919;28;20174;-81
2022/09/21 11:00:54;;;;;;;5.03;1.48;;;;;;;16.59;75.08;156689.25;4944004;29;20474;-83
2022/09/21 11:03:29;;;;;;;6.55;1.27;;;;;;;16.73;70.68;156725.31;4939282;28;20031;-81
2022/09/21 11:06:01;;;;;;;4.07;1.20;;;;;;;16.76;71.13;156731.75;4942011;29;20057;-82
2022/09/21 11:08:38;;;;;;;;;;;;;;;16.86;73.48;156756.28;4945151;28;20039;-82
2022/09/21 11:11:16;;;;;;;3.08;1.20;;;;;;;16.74;69.65;156727.91;4957740;28;20637;-83
2022/09/21 11:13:57;;;;;;;5.78;1.27;;;;;;;17.01;73.64;156793.59;4962407;28;20035;-82
2022/09/21 11:17:01;;;;;;;2.33;1.40;;;;;;;17.23;69.11;156849.00;4927867;28;20049;-82
2022/09/21 11:19:38;;;;;;;4.63;1.25;;;;;;;17.09;68.87;156814.25;4909725;28;20069;-82
2022/09/21 11:22:07;;;;;;;3.88;1.60;;;;;;;17.25;64.31;156854.16;4918619;29;20038;-82
2022/09/21 11:24:47;;;;;;;2.45;1.13;;;;;;;17.26;63.25;156858.03;4940333;28;20071;-82
2022/09/21 11:27:21;;;;;;;6.53;1.30;;;;;;;17.21;61.17;156845.13;4941980;28;20036;-82
2022/09/21 11:29:55;;;;;;;4.47;1.05;;;;;;;17.16;74.68;156830.97;4939632;29;20031;-82
2022/09/21 11:32:30;;;;;;;4.80;1.40;;;;;;;17.31;65.52;156870.91;4953999;28;20118;-82
2022/09/21 11:35:21;;;;;;;4.85;1.20;;;;;;;17.53;64.29;156925.00;4945499;28;20080;-84
2022/09/21 11:38:04;;;;;;;4.90;1.30;;;;;;;17.76;62.61;156982.97;4934166;29;20031;-83
2022/09/21 11:40:50;;;;;;;4.00;1.55;;;;;;;17.83;60.72;156999.75;4938113;28;20044;-81
2022/09/21 11:43:38;;;;;;;4.85;1.17;;;;;;;17.86;65.94;157008.81;4935075;28;20042;-82